Time;durP1;ratioP1;P1;durP2;ratioP2;P2;SDS_P1;SDS_P2;PMS_P1;PMS_P2;Temp;Humidity;BMP_temperature;BMP_pressure;BME280_temperature;BME280_humidity;BME280_pressure;Samples;Min_cycle;Max_cycle;Signal;HPM_P1;HPM_P2
2023/04/30 06:29:06;;;;;;;15.27;9.77;;;;;;;8.51;100.00;102149.59;5069821;28;20382;-70
2023/04/30 06:31:31;;;;;;;15.38;9.57;;;;;;;8.55;100.00;102145.50;5069732;28;20040;-70
2023/04/30 06:33:57;;;;;;;15.10;10.07;;;;;;;8.58;100.00;102144.31;5067740;28;20468;-70
2023/04/30 06:36:22;;;;;;;13.75;10.77;;;;;;;8.68;100.00;102150.28;5083173;28;20063;-71
2023/04/30 06:38:47;;;;;;;17.98;10.57;;;;;;;8.76;100.00;102152.13;5089560;28;20040;-70
2023/04/30 06:41:15;;;;;;;14.95;10.48;;;;;;;8.85;100.00;102148.31;5089919;28;20425;-71
2023/04/30 09:02:22;;;;;;;14.52;9.48;;;;;;;12.03;100.00;102136.69;5106801;27;1277124;-74
2023/04/30 09:04:48;;;;;;;13.68;9.15;;;;;;;12.10;100.00;102141.28;5130382;28;20027;-70
2023/04/30 09:07:14;;;;;;;13.15;9.45;;;;;;;12.10;100.00;102139.41;5127178;27;20032;-75
2023/04/30 09:09:40;;;;;;;11.80;8.60;;;;;;;12.22;100.00;102136.94;5126402;27;20158;-72
2023/04/30 09:12:19;;;;;;;12.93;8.63;;;;;;;12.36;100.00;102137.81;5113176;27;20106;-73
2023/04/30 09:15:00;;;;;;;12.68;10.25;;;;;;;12.43;100.00;102137.84;5114433;28;20072;-70
2023/04/30 09:17:34;;;;;;;11.65;8.98;;;;;;;12.53;100.00;102135.53;5089542;28;20039;-76
2023/04/30 09:20:12;;;;;;;8.75;7.85;;;;;;;12.62;96.09;102137.03;5104663;28;20070;-74
2023/04/30 09:22:40;;;;;;;12.15;8.25;;;;;;;12.67;91.39;102139.13;5089129;28;20025;-74
2023/04/30 09:25:06;;;;;;;9.00;8.10;;;;;;;12.68;92.37;102135.34;5109470;28;20028;-74
2023/04/30 09:27:32;;;;;;;11.10;8.70;;;;;;;12.78;94.50;102141.22;5130261;27;20031;-74
2023/04/30 09:29:57;;;;;;;11.82;8.93;;;;;;;12.87;99.28;102130.97;5129900;27;20027;-73
2023/04/30 09:32:23;;;;;;;9.52;8.45;;;;;;;12.88;92.55;102136.19;5130143;27;20031;-73
2023/04/30 09:34:48;;;;;;;12.85;8.75;;;;;;;12.96;95.38;102137.88;5127256;28;20031;-73
2023/04/30 09:37:14;;;;;;;10.50;9.35;;;;;;;13.03;100.00;102129.69;5128809;28;20125;-74
2023/04/30 09:39:53;;;;;;;11.88;9.45;;;;;;;13.17;99.76;102133.28;5121732;27;20026;-74
2023/04/30 09:42:19;;;;;;;10.30;9.30;;;;;;;13.25;96.85;102136.56;5108384;28;20032;-74
2023/04/30 09:44:45;;;;;;;9.10;8.20;;;;;;;13.37;95.76;102133.25;5106017;28;20471;-74
2023/04/30 09:47:13;;;;;;;10.48;7.88;;;;;;;13.39;94.42;102136.59;5116051;28;20031;-73
2023/04/30 09:49:43;;;;;;;9.43;8.18;;;;;;;13.40;87.92;102132.84;5130029;27;20181;-74
2023/04/30 09:52:10;;;;;;;9.25;8.23;;;;;;;13.44;82.06;102123.22;5130430;28;20033;-73
2023/04/30 09:54:36;;;;;;;9.90;7.68;;;;;;;13.36;87.73;102128.88;5126903;28;20513;-74
2023/04/30 09:57:04;;;;;;;9.10;7.57;;;;;;;13.39;84.18;102123.00;5126652;28;20134;-75
2023/04/30 09:59:33;;;;;;;8.00;6.75;;;;;;;13.41;85.06;102134.50;5112956;27;20031;-72
2023/04/30 10:02:00;;;;;;;11.18;7.38;;;;;;;13.54;88.13;102122.75;5100689;28;20100;-75
2023/04/30 10:04:41;;;;;;;7.07;6.40;;;;;;;13.60;86.23;102127.34;5105661;28;20107;-72
2023/04/30 10:07:18;;;;;;;7.40;5.70;;;;;;;13.61;89.21;102127.13;5104167;28;20089;-74
2023/04/30 10:09:49;;;;;;;7.32;6.63;;;;;;;13.69;84.94;102119.78;5111798;28;20042;-74
2023/04/30 10:12:17;;;;;;;8.15;7.32;;;;;;;13.69;84.64;102111.63;5108982;27;20081;-73
2023/04/30 10:14:50;;;;;;;8.80;6.70;;;;;;;13.70;81.71;102108.69;5114737;28;20032;-74
2023/04/30 10:17:17;;;;;;;10.50;6.90;;;;;;;13.81;80.95;102112.63;5103871;28;20028;-73
2023/04/30 10:19:58;;;;;;;7.78;6.97;;;;;;;13.89;82.04;102115.09;5112885;28;20480;-76
2023/04/30 10:22:26;;;;;;;7.35;6.20;;;;;;;13.89;77.70;102115.09;5095251;28;20378;-76
2023/04/30 10:24:52;;;;;;;7.85;7.00;;;;;;;14.03;81.65;102112.31;5093632;28;20028;-76
2023/04/30 10:27:18;;;;;;;10.07;7.50;;;;;;;14.03;81.64;102102.25;5100881;28;20047;-75
2023/04/30 10:29:45;;;;;;;8.25;7.13;;;;;;;14.12;77.15;102113.75;5087506;28;20481;-79
2023/04/30 10:32:17;;;;;;;7.82;7.13;;;;;;;14.13;81.59;102107.22;5093179;28;20038;-75
2023/04/30 10:35:10;;;;;;;9.05;7.22;;;;;;;14.24;81.76;102101.09;5095383;28;20444;-75
2023/04/30 10:38:01;;;;;;;8.02;7.15;;;;;;;14.32;76.47;102089.94;5103266;28;20382;-72
2023/04/30 10:40:28;;;;;;;9.57;7.45;;;;;;;14.42;76.87;102091.34;5105649;28;20058;-76
2023/04/30 10:42:53;;;;;;;8.43;7.50;;;;;;;14.57;75.57;102088.28;5106280;28;20031;-73
2023/04/30 10:45:37;;;;;;;7.32;6.63;;;;;;;14.52;75.98;102091.69;5092646;28;20058;-75
2023/04/30 10:48:03;;;;;;;7.15;6.45;;;;;;;14.62;72.30;102086.63;5093175;28;20479;-72
2023/04/30 10:50:29;;;;;;;8.45;7.05;;;;;;;14.67;74.64;102089.53;5093518;28;20095;-72
2023/04/30 10:53:02;;;;;;;6.78;6.15;;;;;;;14.70;71.07;102085.50;5096265;28;20092;-72
2023/04/30 10:55:29;;;;;;;9.18;7.45;;;;;;;14.60;71.31;102088.69;5093734;28;20055;-73
2023/04/30 10:57:57;;;;;;;8.20;6.53;;;;;;;14.59;73.66;102084.31;5090160;28;20047;-75
2023/04/30 11:00:29;;;;;;;7.70;6.72;;;;;;;14.67;72.01;102070.44;5092446;28;20024;-73
2023/04/30 11:02:57;;;;;;;8.23;6.03;;;;;;;14.68;72.94;102069.38;5106918;28;20059;-73
2023/04/30 11:06:02;;;;;;;5.10;4.60;;;;;;;14.65;69.05;102064.38;5113441;28;20050;-74
2023/04/30 11:08:37;;;;;;;6.28;4.70;;;;;;;14.78;69.00;102057.13;5107168;28;20058;-74
2023/04/30 11:11:04;;;;;;;6.60;5.03;;;;;;;14.81;66.75;102064.84;5092502;28;20467;-75
2023/04/30 11:13:46;;;;;;;5.80;5.30;;;;;;;14.84;67.51;102064.41;5112653;28;20432;-75
2023/04/30 11:16:15;;;;;;;5.10;4.60;;;;;;;14.87;64.07;102053.06;5107614;28;20062;-74
2023/04/30 11:18:44;;;;;;;6.07;4.88;;;;;;;14.82;65.12;102052.91;5092417;28;20024;-74
2023/04/30 11:21:10;;;;;;;7.60;5.47;;;;;;;14.78;66.54;102049.81;5091120;28;20028;-74
2023/04/30 11:23:39;;;;;;;9.88;6.07;;;;;;;14.81;64.90;102045.78;5092992;28;20108;-74
2023/04/30 11:26:06;;;;;;;5.75;5.13;;;;;;;14.86;67.60;102051.41;5092992;28;20060;-74
2023/04/30 11:28:34;;;;;;;5.75;5.13;;;;;;;14.81;64.18;102037.59;5093365;28;20044;-75
2023/04/30 11:31:00;;;;;;;6.55;5.13;;;;;;;14.76;64.81;102032.00;5093548;28;20409;-73
2023/04/30 11:33:31;;;;;;;4.85;4.40;;;;;;;14.78;63.95;102035.34;5107992;28;20110;-77
2023/04/30 11:35:57;;;;;;;4.85;4.40;;;;;;;14.79;65.02;102037.00;5100300;28;20039;-76
2023/04/30 11:38:28;;;;;;;4.40;4.00;;;;;;;14.97;65.86;102026.13;5092602;28;20024;-72
2023/04/30 11:40:56;;;;;;;4.68;4.28;;;;;;;15.15;63.48;102024.47;5092177;28;20367;-73
2023/04/30 11:43:32;;;;;;;4.30;3.90;;;;;;;15.26;64.81;102015.53;5110269;28;20100;-72
2023/04/30 11:46:07;;;;;;;6.93;4.32;;;;;;;15.26;62.36;102015.53;5113928;28;20020;-75
2023/04/30 11:48:34;;;;;;;5.07;4.30;;;;;;;15.52;64.16;102016.25;5112350;28;20043;-74
2023/04/30 11:51:25;;;;;;;5.00;4.00;;;;;;;15.74;63.92;102006.53;5113679;28;20047;-74
2023/04/30 11:53:53;;;;;;;6.10;4.23;;;;;;;15.96;61.97;102008.78;5113645;28;20051;-73
2023/04/30 11:56:53;;;;;;;4.95;3.97;;;;;;;16.07;59.07;102010.69;5099258;28;20027;-74
2023/04/30 11:59:18;;;;;;;5.53;4.13;;;;;;;16.22;58.55;101996.59;5089929;28;20039;-74
2023/04/30 12:01:44;;;;;;;3.97;3.58;;;;;;;16.47;61.09;102001.88;5088351;28;20056;-73
2023/04/30 12:04:12;;;;;;;4.55;3.53;;;;;;;16.65;58.82;102000.06;5091781;28;20019;-74
2023/04/30 12:06:37;;;;;;;4.32;3.20;;;;;;;16.74;56.54;101998.69;5093983;28;20031;-74
2023/04/30 12:09:07;;;;;;;3.03;2.83;;;;;;;16.90;56.88;101999.03;5090677;28;20039;-77
2023/04/30 12:11:34;;;;;;;4.38;3.92;;;;;;;16.96;55.86;101992.63;5092359;28;20028;-74
2023/04/30 12:14:06;;;;;;;4.03;3.63;;;;;;;17.04;55.84;101997.69;5091848;28;20490;-76
2023/04/30 12:16:50;;;;;;;4.70;3.70;;;;;;;17.18;57.52;101990.06;5093423;28;20023;-75
2023/04/30 12:19:17;;;;;;;4.57;3.70;;;;;;;17.23;56.43;101983.88;5101604;28;20031;-74
2023/04/30 12:21:45;;;;;;;4.63;3.55;;;;;;;17.26;54.48;101986.13;5113607;27;20038;-73
2023/04/30 12:24:15;;;;;;;3.60;3.30;;;;;;;17.38;55.86;101981.47;5113305;28;20035;-76
2023/04/30 12:26:41;;;;;;;3.80;3.50;;;;;;;17.59;55.20;101988.16;5092544;28;20102;-75
2023/04/30 12:29:09;;;;;;;4.90;3.20;;;;;;;17.79;53.58;101984.97;5089618;28;20474;-74
2023/04/30 12:31:36;;;;;;;3.88;3.53;;;;;;;17.80;52.42;101978.41;5091402;28;20039;-75
2023/04/30 12:34:06;;;;;;;4.00;3.53;;;;;;;18.04;54.15;101983.78;5091512;28;20097;-75
2023/04/30 12:36:32;;;;;;;5.50;3.20;;;;;;;18.11;52.59;101972.69;5092704;28;20028;-75
2023/04/30 12:39:15;;;;;;;3.25;2.95;;;;;;;18.16;53.40;101981.81;5091835;28;20031;-73
2023/04/30 12:41:44;;;;;;;4.22;3.40;;;;;;;17.93;52.08;101969.06;5091556;28;20020;-74
2023/04/30 12:44:28;;;;;;;4.22;2.97;;;;;;;17.93;53.70;101968.25;5091740;28;20032;-75
2023/04/30 12:46:59;;;;;;;3.72;2.95;;;;;;;17.70;51.31;101961.81;5090479;28;20032;-74
2023/04/30 12:49:27;;;;;;;4.65;3.10;;;;;;;17.50;51.49;101968.56;5091780;28;20107;-73
2023/04/30 12:51:59;;;;;;;3.25;2.50;;;;;;;17.34;53.67;101966.59;5091280;28;20032;-74
2023/04/30 12:54:26;;;;;;;3.60;2.90;;;;;;;17.31;51.99;101964.34;5092832;28;20024;-75
2023/04/30 12:57:02;;;;;;;3.88;2.97;;;;;;;17.51;53.31;101962.00;5092639;28;20092;-76
2023/04/30 12:59:33;;;;;;;3.80;2.53;;;;;;;17.44;51.87;101966.78;5091775;28;20032;-75
2023/04/30 13:02:08;;;;;;;2.87;2.57;;;;;;;17.43;52.04;101961.56;5088949;28;20044;-74
2023/04/30 13:04:38;;;;;;;2.50;2.30;;;;;;;17.57;53.77;101946.50;5092772;28;20277;-74
2023/04/30 13:07:03;;;;;;;2.65;2.45;;;;;;;17.72;52.84;101940.47;5091480;28;20039;-75
2023/04/30 13:09:30;;;;;;;3.30;2.80;;;;;;;17.71;51.11;101947.88;5092654;28;20032;-75
2023/04/30 13:11:56;;;;;;;3.30;2.70;;;;;;;17.71;50.88;101941.56;5102769;28;20052;-73
2023/04/30 13:14:21;;;;;;;3.10;2.70;;;;;;;17.91;51.39;101946.59;5111183;28;20036;-74
2023/04/30 13:16:46;;;;;;;4.78;3.00;;;;;;;18.01;50.10;101943.19;5090629;28;20039;-73
2023/04/30 13:19:12;;;;;;;2.80;2.60;;;;;;;18.18;51.46;101924.03;5091037;28;20032;-74
2023/04/30 13:21:37;;;;;;;2.83;2.63;;;;;;;18.35;50.36;101929.50;5092577;28;20024;-75
2023/04/30 13:24:03;;;;;;;3.15;2.63;;;;;;;18.53;50.95;101926.47;5090132;28;20038;-76
2023/04/30 13:26:28;;;;;;;2.78;2.50;;;;;;;18.74;50.23;101926.75;5109287;28;20035;-76
2023/04/30 13:28:54;;;;;;;3.05;2.78;;;;;;;18.56;49.33;101927.88;5112640;28;20062;-74
2023/04/30 13:31:21;;;;;;;3.35;2.70;;;;;;;18.29;50.26;101923.09;5092388;28;20035;-74
2023/04/30 13:33:46;;;;;;;4.30;2.50;;;;;;;18.14;51.67;101915.47;5098245;28;20042;-76
2023/04/30 13:36:12;;;;;;;3.17;2.65;;;;;;;18.11;51.92;101918.72;5112544;28;20414;-75
2023/04/30 13:38:38;;;;;;;3.95;2.65;;;;;;;18.16;50.18;101910.59;5092914;28;20036;-74
2023/04/30 13:41:04;;;;;;;3.60;2.45;;;;;;;18.18;49.83;101910.34;5090268;28;20028;-78
2023/04/30 13:43:30;;;;;;;4.05;2.75;;;;;;;18.11;49.16;101917.88;5091595;28;20028;-76
2023/04/30 13:45:55;;;;;;;3.20;2.90;;;;;;;17.92;50.63;101912.69;5090462;28;20475;-73
2023/04/30 13:48:21;;;;;;;2.95;2.75;;;;;;;17.77;49.99;101918.69;5094474;28;20103;-72
2023/04/30 13:50:46;;;;;;;3.90;2.40;;;;;;;17.91;50.82;101913.75;5094100;28;20103;-71
2023/04/30 13:53:11;;;;;;;3.85;2.90;;;;;;;18.11;50.00;101902.28;5093326;28;20030;-72
2023/04/30 13:55:37;;;;;;;7.78;2.83;;;;;;;18.13;50.59;101904.75;5096027;28;20430;-73
2023/04/30 13:58:02;;;;;;;4.47;2.70;;;;;;;18.03;52.23;101900.78;5094181;28;20119;-73
2023/04/30 14:00:28;;;;;;;4.55;3.30;;;;;;;17.85;50.94;101906.50;5093445;28;20024;-72
2023/04/30 14:02:53;;;;;;;4.18;2.80;;;;;;;17.68;49.87;101895.53;5094656;28;20058;-72
2023/04/30 14:05:18;;;;;;;3.70;2.67;;;;;;;17.52;51.49;101895.25;5092274;28;20031;-72
2023/04/30 14:07:44;;;;;;;3.20;2.72;;;;;;;17.57;51.65;101899.16;5095800;28;20025;-73
2023/04/30 14:10:12;;;;;;;3.25;2.70;;;;;;;17.55;52.29;101888.44;5095508;28;20027;-73
2023/04/30 14:12:37;;;;;;;3.10;2.70;;;;;;;17.55;51.50;101891.19;5094342;28;20035;-74
2023/04/30 14:15:04;;;;;;;4.18;3.15;;;;;;;17.56;50.65;101883.81;5111025;28;20027;-71
2023/04/30 14:17:30;;;;;;;3.33;3.03;;;;;;;17.72;50.89;101891.19;5114730;28;20413;-73
2023/04/30 14:20:03;;;;;;;3.15;2.80;;;;;;;17.73;51.21;101886.56;5111224;28;20046;-78
2023/04/30 14:22:30;;;;;;;6.07;3.00;;;;;;;17.59;51.57;101888.78;5094303;28;20024;-73
2023/04/30 14:24:55;;;;;;;3.42;3.10;;;;;;;17.57;52.26;101886.28;5090398;28;20028;-75
2023/04/30 14:27:20;;;;;;;3.25;2.88;;;;;;;17.61;52.53;101886.66;5093903;28;20471;-75
2023/04/30 14:30:14;;;;;;;4.13;2.88;;;;;;;17.83;52.78;101882.09;5092624;28;20032;-74
2023/04/30 14:32:40;;;;;;;6.68;2.92;;;;;;;18.10;51.24;101884.19;5106984;28;20036;-74
2023/04/30 14:35:08;;;;;;;3.15;2.70;;;;;;;18.32;49.54;101880.69;5095388;28;20031;-74
2023/04/30 14:37:36;;;;;;;3.25;2.70;;;;;;;18.41;49.04;101879.16;5093913;28;20031;-75
2023/04/30 14:40:03;;;;;;;4.35;2.78;;;;;;;18.64;48.51;101877.28;5093976;28;20039;-73
2023/04/30 14:42:37;;;;;;;3.67;2.67;;;;;;;18.63;48.52;101875.59;5092717;28;20040;-76
2023/04/30 14:45:06;;;;;;;3.80;2.72;;;;;;;18.50;48.49;101882.31;5091088;28;20040;-75
2023/04/30 14:47:31;;;;;;;3.40;2.72;;;;;;;18.33;49.44;101871.38;5092999;28;20389;-74
2023/04/30 14:49:57;;;;;;;5.88;3.28;;;;;;;18.82;47.84;101863.22;5093367;28;20034;-74
2023/04/30 14:52:23;;;;;;;3.40;3.08;;;;;;;19.54;46.56;101861.28;5107313;28;20027;-75
2023/04/30 14:54:48;;;;;;;6.20;3.72;;;;;;;20.22;44.87;101857.97;5109414;28;20041;-75
2023/04/30 14:57:50;;;;;;;5.03;3.03;;;;;;;20.31;45.84;101858.31;5092150;28;20028;-76
2023/04/30 15:03:47;;;;;;;3.35;2.90;;;;;;;19.23;47.23;101847.25;5085944;28;20043;-75
2023/04/30 15:06:13;;;;;;;3.58;2.47;;;;;;;19.50;45.13;101851.09;5090299;28;20174;-73
2023/04/30 15:08:39;;;;;;;5.03;3.10;;;;;;;19.40;45.45;101849.06;5095486;28;20530;-72
2023/04/30 15:11:05;;;;;;;6.50;3.45;;;;;;;19.53;45.90;101839.56;5097762;28;20058;-72
2023/04/30 15:13:31;;;;;;;5.68;3.58;;;;;;;20.08;44.79;101840.28;5081609;28;20494;-75
2023/04/30 15:15:57;;;;;;;4.43;3.38;;;;;;;20.50;44.35;101837.50;5094444;28;20032;-74
2023/04/30 15:18:22;;;;;;;3.88;2.90;;;;;;;20.45;43.93;101833.91;5102443;28;20031;-74
2023/04/30 15:20:48;;;;;;;5.13;3.30;;;;;;;19.95;44.30;101831.41;5099312;28;20028;-73
2023/04/30 15:23:13;;;;;;;4.82;2.90;;;;;;;19.52;45.45;101827.78;5090639;28;20111;-75
2023/04/30 15:25:42;;;;;;;5.22;3.33;;;;;;;19.18;45.77;101832.66;5087385;28;20052;-73
2023/04/30 15:28:16;;;;;;;9.48;3.20;;;;;;;19.04;46.16;101832.25;5092529;28;20028;-73
2023/04/30 15:30:52;;;;;;;5.63;2.90;;;;;;;19.20;46.35;101836.78;5092388;28;20391;-73
2023/04/30 15:33:23;;;;;;;5.18;3.20;;;;;;;19.02;45.58;101823.44;5092374;28;20368;-72
2023/04/30 15:35:49;;;;;;;4.70;3.05;;;;;;;18.69;47.09;101830.72;5078970;28;20062;-73
2023/04/30 15:38:14;;;;;;;3.67;2.75;;;;;;;18.63;46.28;101832.59;5084753;28;20111;-73
2023/04/30 15:40:40;;;;;;;3.95;2.55;;;;;;;18.62;46.47;101830.09;5090243;28;20024;-73
2023/04/30 15:43:06;;;;;;;3.78;2.58;;;;;;;18.46;48.21;101813.44;5092966;28;20046;-72
2023/04/30 15:45:32;;;;;;;3.83;2.42;;;;;;;18.46;48.58;101818.91;5093882;28;20054;-76
2023/04/30 15:47:59;;;;;;;3.45;2.20;;;;;;;18.86;47.35;101808.75;5093734;28;20024;-76
2023/04/30 15:50:25;;;;;;;17.85;11.07;;;;;;;19.18;47.56;101813.47;5092306;28;20436;-73
2023/04/30 15:52:51;;;;;;;3.83;2.60;;;;;;;19.07;46.84;101812.53;5096517;28;20067;-71
2023/04/30 15:55:16;;;;;;;4.63;2.78;;;;;;;18.98;45.76;101805.84;5093437;28;20036;-74
2023/04/30 15:57:41;;;;;;;4.78;2.45;;;;;;;18.74;46.43;101803.38;5091679;28;20036;-74
2023/04/30 16:00:08;;;;;;;3.03;2.15;;;;;;;18.82;47.26;101802.91;5090025;28;20027;-76
2023/04/30 16:02:34;;;;;;;3.03;2.40;;;;;;;18.86;46.17;101798.59;5079649;28;20052;-75
2023/04/30 16:04:59;;;;;;;2.50;1.92;;;;;;;19.11;44.56;101794.47;5082298;28;20024;-71
2023/04/30 16:07:25;;;;;;;2.00;1.90;;;;;;;19.10;45.49;101790.06;5087316;28;20030;-75
